Time;durP1;ratioP1;P1;durP2;ratioP2;P2;SDS_P1;SDS_P2;PMS_P1;PMS_P2;Temp;Humidity;BMP_temperature;BMP_pressure;BME280_temperature;BME280_humidity;BME280_pressure;Samples;Min_cycle;Max_cycle;Signal;HPM_P1;HPM_P2
2021/03/26 00:01:18;;;;;;;8.80;6.50;;;7.60;99.90;;;;;;5086272;28;20422;-74
2021/03/26 00:03:46;;;;;;;9.07;6.43;;;7.60;99.90;;;;;;5086602;28;20433;-77
2021/03/26 00:06:19;;;;;;;9.37;6.20;;;7.60;99.90;;;;;;5077575;28;20438;-74
2021/03/26 00:08:45;;;;;;;7.33;5.80;;;7.60;99.90;;;;;;5083853;28;20429;-74
2021/03/26 00:11:11;;;;;;;6.50;5.50;;;7.60;99.90;;;;;;5081393;28;20439;-74
2021/03/26 00:13:38;;;;;;;6.00;5.40;;;7.60;99.90;;;;;;5083469;28;20435;-77
2021/03/26 00:16:04;;;;;;;9.80;5.97;;;7.60;99.90;;;;;;5081927;28;20417;-75
2021/03/26 00:18:29;;;;;;;9.43;6.03;;;7.70;99.90;;;;;;5081737;28;20517;-76
2021/03/26 00:20:55;;;;;;;8.40;6.00;;;7.60;99.90;;;;;;5085683;28;20499;-71
2021/03/26 00:23:21;;;;;;;6.30;5.20;;;7.60;99.90;;;;;;5080494;28;20198;-74
2021/03/26 00:25:46;;;;;;;9.37;5.97;;;7.70;99.90;;;;;;5083755;28;20183;-76
2021/03/26 00:28:13;;;;;;;7.70;5.87;;;7.70;99.90;;;;;;5083801;28;20269;-76
2021/03/26 00:30:38;;;;;;;5.60;5.10;;;7.70;99.90;;;;;;5082480;28;20188;-75
2021/03/26 00:33:07;;;;;;;7.63;6.40;;;7.70;99.90;;;;;;5080644;28;20492;-74
2021/03/26 00:35:33;;;;;;;9.23;5.20;;;7.70;99.90;;;;;;5085083;28;20830;-76
2021/03/26 00:37:59;;;;;;;7.83;6.37;;;7.70;99.90;;;;;;5080857;28;20423;-76
2021/03/26 00:40:25;;;;;;;10.13;5.30;;;7.70;99.90;;;;;;5080585;28;20419;-74
2021/03/26 00:42:51;;;;;;;6.27;5.67;;;7.70;99.90;;;;;;5080177;28;20205;-75
2021/03/26 00:45:19;;;;;;;6.13;5.57;;;7.60;99.90;;;;;;5084233;28;20424;-75
2021/03/26 00:47:45;;;;;;;5.83;4.57;;;7.60;99.90;;;;;;5085145;28;20873;-74
2021/03/26 00:50:18;;;;;;;5.80;5.10;;;7.50;99.90;;;;;;5080350;28;20498;-74
2021/03/26 00:52:44;;;;;;;8.20;5.10;;;7.40;99.90;;;;;;5082951;28;20219;-75
2021/03/26 00:55:10;;;;;;;4.93;4.33;;;7.30;99.90;;;;;;5081859;28;20647;-74
2021/03/26 00:57:36;;;;;;;8.23;5.43;;;7.20;99.90;;;;;;5084288;28;20423;-73
2021/03/26 01:00:07;;;;;;;5.40;4.37;;;7.10;99.90;;;;;;5080154;28;20427;-74
2021/03/26 01:02:33;;;;;;;12.57;5.07;;;7.10;99.90;;;;;;5080942;28;20578;-75
2021/03/26 01:04:58;;;;;;;10.53;5.63;;;7.00;99.90;;;;;;5084199;28;20420;-75
2021/03/26 01:07:24;;;;;;;7.00;5.80;;;6.90;99.90;;;;;;5081695;28;20188;-74
2021/03/26 01:09:50;;;;;;;5.00;4.50;;;6.80;99.90;;;;;;5082978;28;20689;-74
2021/03/26 01:12:16;;;;;;;8.53;5.00;;;6.70;99.90;;;;;;5084335;28;20587;-74
2021/03/26 01:14:41;;;;;;;15.73;5.63;;;6.70;99.90;;;;;;5083018;28;20495;-74
2021/03/26 01:17:07;;;;;;;7.70;5.60;;;6.60;99.90;;;;;;5081340;28;20269;-76
2021/03/26 01:19:38;;;;;;;12.60;7.67;;;6.60;99.90;;;;;;5084108;28;20261;-77
2021/03/26 01:22:05;;;;;;;9.10;5.87;;;6.50;99.90;;;;;;5080627;28;20962;-74
2021/03/26 01:24:30;;;;;;;11.27;4.90;;;6.50;99.90;;;;;;5084521;28;21000;-74
2021/03/26 01:26:56;;;;;;;16.53;5.90;;;6.40;99.90;;;;;;5083597;28;20424;-74
2021/03/26 01:29:21;;;;;;;5.97;5.43;;;6.30;99.90;;;;;;5081496;28;20610;-75
2021/03/26 01:31:47;;;;;;;6.63;5.33;;;6.30;99.90;;;;;;5082451;28;20209;-74
2021/03/26 01:34:12;;;;;;;7.23;5.40;;;6.20;99.90;;;;;;5082274;28;20219;-74
2021/03/26 01:36:38;;;;;;;7.90;5.50;;;6.10;99.90;;;;;;5080563;28;20658;-75
2021/03/26 01:39:06;;;;;;;10.50;6.60;;;6.10;99.90;;;;;;5080340;28;20204;-74
2021/03/26 01:41:38;;;;;;;7.40;5.73;;;6.00;99.90;;;;;;5083935;28;20216;-76
2021/03/26 01:44:05;;;;;;;13.30;5.70;;;5.90;99.90;;;;;;5080164;28;20450;-74
2021/03/26 01:46:31;;;;;;;5.20;4.53;;;5.90;99.90;;;;;;5083746;28;20852;-75
2021/03/26 01:49:00;;;;;;;14.40;5.90;;;5.90;99.90;;;;;;5080469;28;20418;-75
2021/03/26 01:51:35;;;;;;;8.10;5.80;;;5.80;99.90;;;;;;5083534;28;20280;-74
2021/03/26 01:54:02;;;;;;;9.03;5.80;;;5.80;99.90;;;;;;5083890;28;20862;-73
2021/03/26 01:56:29;;;;;;;8.77;5.67;;;5.90;99.90;;;;;;5083519;28;20418;-74
2021/03/26 01:58:54;;;;;;;8.93;6.10;;;5.90;99.90;;;;;;5083496;28;20909;-74
2021/03/26 02:01:29;;;;;;;13.43;8.30;;;5.90;99.90;;;;;;5080727;28;20473;-74
2021/03/26 02:03:59;;;;;;;8.20;6.50;;;5.80;99.90;;;;;;5081620;28;20551;-75
2021/03/26 02:06:33;;;;;;;7.80;6.20;;;5.80;99.90;;;;;;5080302;28;20793;-74
2021/03/26 02:09:15;;;;;;;10.43;6.07;;;5.80;99.90;;;;;;5081034;28;20992;-73
2021/03/26 02:11:58;;;;;;;8.10;7.10;;;5.80;99.90;;;;;;5080932;28;20942;-75
2021/03/26 02:14:32;;;;;;;7.10;6.07;;;5.80;99.90;;;;;;5080507;28;20862;-74
2021/03/26 02:16:58;;;;;;;10.13;7.00;;;5.80;99.90;;;;;;5079189;28;20410;-71
2021/03/26 02:19:43;;;;;;;10.67;7.03;;;5.80;99.90;;;;;;5080979;28;20957;-74
2021/03/26 02:22:10;;;;;;;10.77;6.67;;;5.80;99.90;;;;;;5085644;28;20257;-74
2021/03/26 02:24:36;;;;;;;12.13;6.57;;;5.80;99.90;;;;;;5080772;28;20825;-74
2021/03/26 02:27:08;;;;;;;14.83;7.00;;;5.90;99.90;;;;;;5080833;28;21205;-74
2021/03/26 02:29:34;;;;;;;10.93;7.20;;;6.00;99.90;;;;;;5080054;28;20447;-75
2021/03/26 02:32:06;;;;;;;11.50;7.10;;;5.90;99.90;;;;;;5084941;28;20480;-73
2021/03/26 02:34:32;;;;;;;8.30;6.30;;;6.00;99.90;;;;;;5077675;28;20617;-74
2021/03/26 02:37:06;;;;;;;13.63;6.77;;;6.00;99.90;;;;;;5081695;28;20951;-74
2021/03/26 02:39:43;;;;;;;10.67;7.60;;;6.00;99.90;;;;;;5079940;28;20441;-74
2021/03/26 02:42:23;;;;;;;10.50;7.43;;;6.00;99.90;;;;;;5081963;28;21036;-73
2021/03/26 02:45:17;;;;;;;10.57;7.10;;;6.00;99.90;;;;;;5079971;28;20953;-73
2021/03/26 02:47:55;;;;;;;11.20;7.00;;;6.00;99.90;;;;;;5080910;28;20777;-75
2021/03/26 02:50:43;;;;;;;15.60;7.40;;;5.90;99.90;;;;;;5077742;28;20469;-75
2021/03/26 02:53:19;;;;;;;14.20;7.47;;;5.90;99.90;;;;;;5077840;28;20468;-74
2021/03/26 02:56:01;;;;;;;15.13;7.20;;;5.80;99.90;;;;;;5078219;28;20837;-74
2021/03/26 02:58:30;;;;;;;13.17;6.90;;;5.70;99.90;;;;;;5081268;28;20425;-75
2021/03/26 03:01:05;;;;;;;10.70;6.90;;;5.70;99.90;;;;;;5076897;28;20429;-70
2021/03/26 03:03:34;;;;;;;8.07;6.33;;;5.70;99.90;;;;;;5081360;28;20431;-74
2021/03/26 03:06:09;;;;;;;16.00;7.07;;;5.70;99.90;;;;;;5077706;28;20439;-75
2021/03/26 03:08:36;;;;;;;10.73;6.57;;;5.60;99.90;;;;;;5081207;28;20433;-74
2021/03/26 03:11:16;;;;;;;8.47;6.70;;;5.60;99.90;;;;;;5077315;28;20480;-74
2021/03/26 03:13:52;;;;;;;11.53;7.03;;;5.60;99.90;;;;;;5079738;28;20950;-74
2021/03/26 03:16:17;;;;;;;12.60;7.10;;;5.60;99.90;;;;;;5083175;28;20416;-74
2021/03/26 03:18:59;;;;;;;6.80;6.10;;;5.50;99.90;;;;;;5081834;28;20569;-74
2021/03/26 03:21:34;;;;;;;9.23;6.43;;;5.50;99.90;;;;;;5079101;28;20212;-72
2021/03/26 03:24:31;;;;;;;9.77;7.30;;;5.40;99.90;;;;;;5083483;28;20445;-74
2021/03/26 03:27:14;;;;;;;9.13;6.43;;;5.40;99.90;;;;;;5074135;28;20502;-73
2021/03/26 03:29:53;;;;;;;12.17;7.50;;;5.30;99.90;;;;;;5084022;28;20460;-74
2021/03/26 03:32:40;;;;;;;10.30;6.80;;;5.30;99.90;;;;;;5083320;28;20514;-72
2021/03/26 03:35:08;;;;;;;13.37;7.63;;;5.30;99.90;;;;;;5084206;28;20801;-75
2021/03/26 03:37:54;;;;;;;10.97;7.27;;;5.20;99.90;;;;;;5083095;28;20431;-74
2021/03/26 03:40:36;;;;;;;11.73;6.50;;;5.20;99.90;;;;;;5082921;28;20421;-74
2021/03/26 03:43:13;;;;;;;12.80;6.93;;;5.20;99.90;;;;;;5082701;28;20443;-75
2021/03/26 03:45:50;;;;;;;14.40;6.93;;;5.20;99.90;;;;;;5079700;28;20457;-74
2021/03/26 03:48:23;;;;;;;10.00;6.07;;;5.20;99.90;;;;;;5084531;28;20425;-76
2021/03/26 03:50:57;;;;;;;14.17;6.00;;;5.10;99.90;;;;;;5082739;28;20946;-74
2021/03/26 03:53:41;;;;;;;15.53;7.73;;;5.10;99.90;;;;;;5083662;28;20561;-74
2021/03/26 03:56:34;;;;;;;10.50;7.60;;;5.00;99.90;;;;;;5082444;28;20490;-74
2021/03/26 03:59:07;;;;;;;8.60;6.00;;;5.00;99.90;;;;;;5062231;28;20832;-74
2021/03/26 04:01:35;;;;;;;14.27;7.40;;;5.00;99.90;;;;;;5084046;28;20492;-74
2021/03/26 04:04:11;;;;;;;17.00;7.53;;;5.00;99.90;;;;;;5081967;28;20430;-74
2021/03/26 04:06:48;;;;;;;10.23;6.70;;;5.00;99.90;;;;;;5081091;28;20411;-73
2021/03/26 04:09:18;;;;;;;9.03;7.13;;;5.00;99.90;;;;;;5083257;28;20442;-74
2021/03/26 04:11:53;;;;;;;12.47;6.90;;;5.00;99.90;;;;;;5082966;28;20480;-74
2021/03/26 04:15:00;;;;;;;10.67;7.73;;;5.00;99.90;;;;;;5082658;28;20422;-71
2021/03/26 04:17:32;;;;;;;15.83;7.40;;;5.10;99.90;;;;;;5006687;28;20438;-75
2021/03/26 04:20:09;;;;;;;10.80;6.80;;;5.10;99.90;;;;;;5071030;28;20417;-75
2021/03/26 04:22:51;;;;;;;14.03;7.43;;;5.10;99.90;;;;;;5084956;28;20838;-74
2021/03/26 04:25:23;;;;;;;9.37;7.03;;;5.20;99.90;;;;;;5083552;28;20458;-74
2021/03/26 04:28:00;;;;;;;11.10;8.00;;;5.20;99.90;;;;;;5081464;28;20486;-74
2021/03/26 04:30:29;;;;;;;10.97;7.10;;;5.30;99.90;;;;;;5085839;28;20973;-75
2021/03/26 04:32:55;;;;;;;9.90;6.43;;;5.40;99.90;;;;;;5081714;28;20522;-75
2021/03/26 04:35:23;;;;;;;13.80;7.03;;;5.50;99.90;;;;;;5081552;28;20418;-74
2021/03/26 04:37:58;;;;;;;8.30;7.03;;;5.50;99.90;;;;;;5078573;28;20473;-75
2021/03/26 04:40:29;;;;;;;15.10;7.47;;;5.50;99.90;;;;;;5082280;28;20427;-74
2021/03/26 04:43:42;;;;;;;9.17;6.80;;;5.50;99.90;;;;;;5084043;28;20488;-74
2021/03/26 04:46:32;;;;;;;10.00;6.60;;;5.50;99.90;;;;;;5078030;28;20509;-74
2021/03/26 04:48:57;;;;;;;9.63;7.20;;;5.50;99.90;;;;;;5082680;28;20434;-74
2021/03/26 04:51:31;;;;;;;13.40;8.20;;;5.50;99.90;;;;;;5081794;28;20967;-74
2021/03/26 04:54:21;;;;;;;8.07;6.60;;;5.50;99.90;;;;;;5082431;28;20202;-74
2021/03/26 04:56:52;;;;;;;10.63;7.00;;;5.50;99.90;;;;;;5084370;28;20431;-72
2021/03/26 04:59:24;;;;;;;12.57;8.03;;;5.50;99.90;;;;;;5080043;28;20434;-73
2021/03/26 05:01:53;;;;;;;12.60;7.90;;;5.50;99.90;;;;;;5082286;28;20810;-70
2021/03/26 05:04:30;;;;;;;8.53;6.67;;;5.50;99.90;;;;;;5082563;28;20947;-70
2021/03/26 05:07:01;;;;;;;9.90;7.33;;;5.60;99.90;;;;;;5078506;28;20453;-70
2021/03/26 05:09:32;;;;;;;14.27;7.83;;;5.60;99.90;;;;;;5081250;28;20450;-71
2021/03/26 05:12:16;;;;;;;10.03;7.57;;;5.60;99.90;;;;;;5083626;28;20465;-70
2021/03/26 05:14:51;;;;;;;13.60;8.00;;;5.60;99.90;;;;;;5081606;28;20437;-69
2021/03/26 05:17:30;;;;;;;12.03;7.53;;;5.50;99.90;;;;;;5082345;28;20454;-70
2021/03/26 05:20:04;;;;;;;13.37;7.70;;;5.50;99.90;;;;;;5080412;28;20474;-70
2021/03/26 05:22:57;;;;;;;13.87;7.87;;;5.40;99.90;;;;;;5096548;28;20514;-70
2021/03/26 05:25:39;;;;;;;8.37;7.23;;;5.40;99.90;;;;;;5083838;28;20451;-70
2021/03/26 05:28:39;;;;;;;21.90;8.20;;;5.30;99.90;;;;;;5080432;28;20441;-70
2021/03/26 05:31:31;;;;;;;10.80;7.20;;;5.40;99.90;;;;;;5077528;28;20460;-70
2021/03/26 05:34:03;;;;;;;11.63;7.13;;;5.40;99.90;;;;;;5082686;28;20424;-69
2021/03/26 05:36:44;;;;;;;14.50;8.33;;;5.40;99.90;;;;;;5083265;28;20951;-70
2021/03/26 05:39:22;;;;;;;10.07;7.03;;;5.40;99.90;;;;;;5080828;28;20418;-70
2021/03/26 05:42:21;;;;;;;12.50;8.80;;;5.40;99.90;;;;;;5083117;28;20475;-69
2021/03/26 05:44:54;;;;;;;16.90;8.20;;;5.50;99.90;;;;;;5073735;28;20826;-71
2021/03/26 05:47:35;;;;;;;16.40;8.90;;;5.60;99.90;;;;;;5080422;28;20833;-70
2021/03/26 05:50:15;;;;;;;12.00;7.90;;;5.60;99.90;;;;;;5081160;28;20434;-70
2021/03/26 05:53:04;;;;;;;13.43;9.70;;;5.70;99.90;;;;;;5079161;28;21038;-71
2021/03/26 05:55:53;;;;;;;12.03;8.17;;;5.80;99.90;;;;;;5056897;28;20449;-70
2021/03/26 05:58:23;;;;;;;14.77;8.30;;;5.90;99.90;;;;;;5081917;28;20407;-70
2021/03/26 06:01:16;;;;;;;10.80;8.00;;;6.20;99.90;;;;;;5080937;28;20420;-69
2021/03/26 06:04:02;;;;;;;13.17;9.10;;;6.40;99.90;;;;;;5077586;28;20427;-70
2021/03/26 06:06:43;;;;;;;18.20;10.20;;;6.70;99.90;;;;;;5079654;28;20520;-70
2021/03/26 06:09:31;;;;;;;17.17;11.57;;;7.30;99.90;;;;;;5074981;28;20856;-70
2021/03/26 06:12:21;;;;;;;22.70;12.30;;;8.10;99.90;;;;;;5078313;28;20467;-70
2021/03/26 06:15:24;;;;;;;17.50;12.40;;;8.60;99.90;;;;;;5081806;28;20787;-71
2021/03/26 06:17:54;;;;;;;19.73;13.50;;;8.90;99.90;;;;;;5081362;28;20434;-70
2021/03/26 06:20:46;;;;;;;18.57;12.53;;;9.50;99.90;;;;;;5081584;28;20413;-70
2021/03/26 06:23:35;;;;;;;26.20;11.87;;;10.60;99.90;;;;;;5066916;28;20829;-70
2021/03/26 06:26:10;;;;;;;17.13;11.53;;;11.10;99.90;;;;;;5080485;28;20849;-70
2021/03/26 06:28:50;;;;;;;19.33;14.40;;;11.30;99.90;;;;;;5080178;28;20425;-71
2021/03/26 06:31:53;;;;;;;18.07;12.87;;;11.30;99.90;;;;;;5080839;28;20453;-71
2021/03/26 06:34:49;;;;;;;19.13;12.73;;;10.90;99.90;;;;;;5079440;28;20525;-70
2021/03/26 06:37:30;;;;;;;17.53;13.00;;;10.80;99.90;;;;;;5080510;28;20803;-70
2021/03/26 06:40:14;;;;;;;22.80;12.50;;;10.60;99.90;;;;;;5078681;28;20465;-72
2021/03/26 06:42:58;;;;;;;17.77;13.07;;;10.30;99.90;;;;;;5079726;28;20449;-71
2021/03/26 06:45:45;;;;;;;20.87;15.00;;;10.10;99.90;;;;;;5077973;28;20438;-71
2021/03/26 06:48:29;;;;;;;23.80;14.30;;;10.10;99.90;;;;;;5079951;28;20529;-70
2021/03/26 06:51:12;;;;;;;25.37;15.80;;;10.30;99.90;;;;;;5077911;28;20441;-70
2021/03/26 06:53:58;;;;;;;25.40;13.27;;;11.10;99.90;;;;;;5077987;28;20975;-71
2021/03/26 06:56:44;;;;;;;16.97;13.60;;;11.90;99.90;;;;;;5081590;28;20815;-70
2021/03/26 06:59:19;;;;;;;24.80;12.80;;;12.30;99.90;;;;;;5078904;28;20979;-71
2021/03/26 07:02:12;;;;;;;19.20;12.53;;;12.50;99.90;;;;;;5079173;28;21033;-71
2021/03/26 07:05:08;;;;;;;18.30;13.53;;;12.40;99.90;;;;;;5085503;28;20431;-72
2021/03/26 07:08:02;;;;;;;17.97;11.80;;;12.40;99.90;;;;;;5079982;28;20438;-71
2021/03/26 07:10:46;;;;;;;15.83;12.40;;;12.40;99.90;;;;;;5079310;28;20431;-71
2021/03/26 07:13:38;;;;;;;24.17;14.57;;;12.60;99.90;;;;;;5082749;28;20566;-71
2021/03/26 07:16:41;;;;;;;20.23;13.60;;;13.20;99.90;;;;;;5080592;28;20434;-71
2021/03/26 07:19:24;;;;;;;19.40;13.63;;;13.30;99.90;;;;;;5078869;28;20509;-71
2021/03/26 07:22:05;;;;;;;26.93;14.63;;;13.90;99.90;;;;;;5080895;28;20465;-70
2021/03/26 07:24:49;;;;;;;22.33;16.30;;;14.30;99.90;;;;;;5077479;28;20473;-70
2021/03/26 07:27:44;;;;;;;21.63;14.23;;;14.10;99.90;;;;;;5080558;28;20437;-70
2021/03/26 07:30:14;;;;;;;16.70;12.20;;;14.20;99.90;;;;;;5094997;28;20456;-71
2021/03/26 07:32:58;;;;;;;17.90;13.47;;;14.40;99.90;;;;;;5078371;28;20512;-71
2021/03/26 07:35:52;;;;;;;19.47;12.43;;;14.40;99.90;;;;;;5083528;28;20414;-71
2021/03/26 07:38:33;;;;;;;25.00;13.93;;;14.50;99.90;;;;;;5079115;28;20513;-71
2021/03/26 07:41:13;;;;;;;24.93;13.70;;;14.90;99.90;;;;;;5078573;28;20411;-67
2021/03/26 07:43:59;;;;;;;20.67;14.27;;;14.40;99.90;;;;;;5084235;28;20814;-71
2021/03/26 07:46:54;;;;;;;18.80;14.37;;;14.60;99.90;;;;;;5080721;28;20505;-71
2021/03/26 07:49:37;;;;;;;27.83;13.40;;;14.50;99.90;;;;;;5079413;28;20434;-70
2021/03/26 07:52:31;;;;;;;22.00;13.47;;;14.70;99.90;;;;;;5074566;28;20578;-71
2021/03/26 07:55:21;;;;;;;27.30;16.00;;;15.20;99.90;;;;;;5057251;28;20461;-71
2021/03/26 07:58:13;;;;;;;26.73;16.03;;;15.60;99.90;;;;;;5081707;28;20411;-70
2021/03/26 08:00:57;;;;;;;22.40;12.50;;;15.90;99.90;;;;;;5077825;28;20818;-71
2021/03/26 08:03:44;;;;;;;14.93;11.67;;;16.20;99.90;;;;;;5081297;28;20429;-71
2021/03/26 08:06:28;;;;;;;23.80;14.30;;;16.40;99.90;;;;;;5083041;28;20527;-69
2021/03/26 08:09:32;;;;;;;23.73;11.80;;;16.60;99.90;;;;;;5083505;28;20421;-71
2021/03/26 08:12:28;;;;;;;16.50;12.40;;;16.70;99.90;;;;;;5082268;28;20457;-70
2021/03/26 08:15:23;;;;;;;20.63;12.60;;;16.60;99.90;;;;;;5080126;28;20417;-70
2021/03/26 08:18:12;;;;;;;21.63;12.53;;;16.70;99.90;;;;;;5085331;28;20505;-70
2021/03/26 08:20:56;;;;;;;22.73;13.70;;;17.00;99.90;;;;;;5083854;28;20417;-71
2021/03/26 08:23:50;;;;;;;18.37;12.07;;;17.30;99.90;;;;;;5083595;28;20867;-72
2021/03/26 08:26:53;;;;;;;18.50;13.47;;;17.20;99.90;;;;;;5082171;28;20465;-71
2021/03/26 08:29:37;;;;;;;18.63;11.57;;;17.20;99.90;;;;;;5084761;28;20436;-71
2021/03/26 08:32:26;;;;;;;19.60;13.03;;;17.50;99.90;;;;;;5080208;28;20515;-70
2021/03/26 08:35:08;;;;;;;17.57;12.20;;;17.60;99.90;;;;;;5083487;28;20422;-70
2021/03/26 08:38:06;;;;;;;21.93;14.47;;;17.90;99.90;;;;;;5079735;28;20463;-70
2021/03/26 08:40:49;;;;;;;17.47;11.83;;;18.20;99.90;;;;;;5081674;28;20824;-70
2021/03/26 08:43:17;;;;;;;21.57;13.67;;;18.30;99.90;;;;;;5085978;28;20457;-70
2021/03/26 08:45:54;;;;;;;13.23;11.30;;;18.40;99.90;;;;;;5084960;28;20422;-70
2021/03/26 08:49:08;;;;;;;16.73;11.80;;;18.50;99.90;;;;;;5083105;28;20429;-70
2021/03/26 08:52:00;;;;;;;18.30;12.83;;;18.70;99.90;;;;;;5026553;28;20444;-70
2021/03/26 08:55:03;;;;;;;17.53;11.30;;;18.70;99.90;;;;;;5084665;28;20498;-70
2021/03/26 08:57:44;;;;;;;14.30;10.90;;;18.80;99.90;;;;;;5082223;28;20421;-68
2021/03/26 09:00:18;;;;;;;19.47;11.60;;;19.00;99.90;;;;;;5080887;28;20423;-70
2021/03/26 09:03:05;;;;;;;20.23;11.90;;;19.30;99.90;;;;;;5082643;28;20510;-72
2021/03/26 09:06:00;;;;;;;25.47;12.57;;;19.20;99.90;;;;;;5077923;28;20414;-70
2021/03/26 09:08:38;;;;;;;11.33;9.30;;;19.30;99.90;;;;;;5082325;28;20416;-70
2021/03/26 09:11:22;;;;;;;19.00;12.37;;;19.40;99.90;;;;;;5080990;28;20426;-70
2021/03/26 09:14:05;;;;;;;20.67;11.87;;;19.70;99.90;;;;;;5083029;28;20446;-70
2021/03/26 09:16:35;;;;;;;19.53;11.60;;;19.70;99.90;;;;;;5080424;28;20413;-70
2021/03/26 09:19:16;;;;;;;16.37;11.30;;;19.60;99.90;;;;;;5079343;28;20423;-70
2021/03/26 09:21:58;;;;;;;14.03;11.00;;;19.60;99.90;;;;;;5081648;28;20856;-71
2021/03/26 09:24:35;;;;;;;12.33;9.93;;;19.20;99.90;;;;;;5080421;28;20452;-69
2021/03/26 09:27:13;;;;;;;21.33;11.77;;;19.00;99.90;;;;;;5085820;28;20421;-70
2021/03/26 09:30:04;;;;;;;18.53;11.40;;;19.20;99.90;;;;;;5087793;28;20408;-69
2021/03/26 09:32:34;;;;;;;13.50;11.47;;;19.30;99.90;;;;;;5079024;28;20476;-70
2021/03/26 09:35:25;;;;;;;16.00;10.93;;;19.80;99.90;;;;;;5084437;28;20460;-72
2021/03/26 09:37:59;;;;;;;28.10;11.33;;;19.90;99.90;;;;;;5081095;28;20492;-70
2021/03/26 09:40:28;;;;;;;14.27;11.23;;;20.10;99.90;;;;;;5080570;28;20418;-70
2021/03/26 09:43:08;;;;;;;16.87;11.70;;;19.80;99.90;;;;;;5082499;28;20499;-69
2021/03/26 09:45:42;;;;;;;14.97;11.33;;;19.90;99.90;;;;;;5079774;28;20506;-70
2021/03/26 09:48:13;;;;;;;19.57;12.23;;;19.90;99.90;;;;;;5080398;28;20492;-70
2021/03/26 09:51:02;;;;;;;20.60;12.20;;;20.00;99.90;;;;;;5082326;28;20418;-70
2021/03/26 09:53:33;;;;;;;20.50;13.93;;;20.20;99.90;;;;;;5083745;28;20462;-68
2021/03/26 09:56:33;;;;;;;14.70;11.90;;;19.70;99.90;;;;;;5082508;28;20506;-70
2021/03/26 09:59:25;;;;;;;13.87;11.10;;;20.00;99.90;;;;;;5084042;28;20932;-71
2021/03/26 10:02:10;;;;;;;15.97;11.70;;;20.00;99.90;;;;;;5083745;28;20483;-70
2021/03/26 10:04:58;;;;;;;18.63;11.33;;;20.10;99.90;;;;;;5081636;28;20415;-70
2021/03/26 10:07:45;;;;;;;16.73;11.20;;;20.50;99.90;;;;;;5039359;28;20450;-71
2021/03/26 10:12:55;;;;;;;12.60;10.80;;;20.60;99.90;;;;;;5081459;28;20473;-71
2021/03/26 10:15:25;;;;;;;16.10;12.17;;;20.00;99.90;;;;;;5082408;28;20422;-71
2021/03/26 10:17:56;;;;;;;15.33;11.00;;;19.60;99.90;;;;;;5082381;28;20442;-70
2021/03/26 10:20:42;;;;;;;14.73;11.37;;;19.50;99.90;;;;;;5080549;28;20431;-70
2021/03/26 10:23:26;;;;;;;16.03;9.97;;;19.40;99.90;;;;;;5083469;28;20445;-70
2021/03/26 10:26:03;;;;;;;18.93;11.83;;;19.30;99.90;;;;;;5083073;28;20425;-70
2021/03/26 10:28:32;;;;;;;14.87;10.07;;;19.20;99.90;;;;;;5079448;28;20415;-71
2021/03/26 10:31:07;;;;;;;19.60;12.43;;;19.10;99.90;;;;;;5081197;28;20421;-70
2021/03/26 10:33:45;;;;;;;13.37;10.37;;;19.10;99.90;;;;;;5079923;28;20547;-70
2021/03/26 10:36:35;;;;;;;15.40;11.30;;;19.00;99.90;;;;;;5076937;28;20462;-70
2021/03/26 10:39:15;;;;;;;19.50;11.10;;;18.50;99.90;;;;;;5079097;28;20414;-71
2021/03/26 10:41:53;;;;;;;19.00;11.00;;;18.40;99.90;;;;;;5081774;28;20434;-70
2021/03/26 10:45:02;;;;;;;14.90;10.00;;;18.20;99.90;;;;;;5079639;28;20491;-71
2021/03/26 10:47:42;;;;;;;13.50;10.30;;;18.10;99.90;;;;;;5080059;28;20403;-71
2021/03/26 10:50:11;;;;;;;11.13;9.87;;;18.10;99.90;;;;;;5081854;28;20421;-70
2021/03/26 10:52:40;;;;;;;17.73;10.57;;;18.40;99.90;;;;;;5078892;28;20497;-71
2021/03/26 10:55:27;;;;;;;14.67;9.50;;;18.60;99.90;;;;;;5078882;28;20435;-70
2021/03/26 10:58:04;;;;;;;11.90;8.97;;;18.60;99.90;;;;;;5082803;28;20433;-71
2021/03/26 11:00:40;;;;;;;12.23;7.13;;;19.20;99.90;;;;;;5082632;28;20411;-71
2021/03/26 11:03:15;;;;;;;6.70;5.60;;;20.00;99.90;;;;;;5082778;28;20433;-70
2021/03/26 11:05:47;;;;;;;8.20;5.40;;;20.50;99.90;;;;;;5081208;28;20640;-70
2021/03/26 11:08:15;;;;;;;11.00;7.30;;;20.50;99.90;;;;;;5078748;28;20480;-70
2021/03/26 11:11:09;;;;;;;10.70;7.30;;;20.20;99.90;;;;;;5081254;28;20943;-70
2021/03/26 11:13:43;;;;;;;8.53;6.00;;;20.20;99.90;;;;;;5080399;28;20462;-71
2021/03/26 11:16:32;;;;;;;9.80;5.87;;;20.70;99.90;;;;;;5078553;28;20489;-70
2021/03/26 11:19:00;;;;;;;9.27;5.80;;;21.00;99.90;;;;;;5078700;28;20430;-70
2021/03/26 11:21:35;;;;;;;6.87;6.17;;;21.10;99.90;;;;;;5082803;28;20451;-71
2021/03/26 11:24:05;;;;;;;8.13;5.63;;;21.30;99.90;;;;;;5082058;28;20520;-70
2021/03/26 11:26:36;;;;;;;11.90;7.30;;;21.20;99.10;;;;;;5078713;28;20921;-71
2021/03/26 11:29:24;;;;;;;9.30;7.40;;;20.60;97.70;;;;;;5080981;28;20430;-71
2021/03/26 11:31:56;;;;;;;8.77;7.00;;;20.10;98.80;;;;;;5080480;28;20459;-71
2021/03/26 11:35:00;;;;;;;7.43;5.30;;;19.80;98.60;;;;;;5081359;28;20437;-71
2021/03/26 11:37:42;;;;;;;9.97;6.27;;;20.00;98.60;;;;;;5073545;28;20427;-71
2021/03/26 11:40:38;;;;;;;6.87;5.47;;;20.00;98.70;;;;;;5080677;28;20919;-71
2021/03/26 11:43:17;;;;;;;6.63;4.53;;;20.20;97.30;;;;;;5078874;28;20851;-71
2021/03/26 11:45:55;;;;;;;13.70;5.17;;;20.20;95.60;;;;;;5083599;28;20476;-72
2021/03/26 11:48:44;;;;;;;9.90;6.00;;;20.10;97.00;;;;;;5086125;28;20430;-70
2021/03/26 11:51:31;;;;;;;5.80;4.57;;;20.00;97.20;;;;;;5086479;28;20848;-71
2021/03/26 11:54:15;;;;;;;7.33;5.30;;;20.10;97.40;;;;;;5085140;28;20422;-71
2021/03/26 11:56:46;;;;;;;8.93;5.17;;;20.40;97.30;;;;;;5082314;28;20502;-70
2021/03/26 11:59:31;;;;;;;10.57;5.40;;;20.30;95.60;;;;;;5086037;28;20803;-72
2021/03/26 12:02:22;;;;;;;6.53;5.80;;;19.70;95.70;;;;;;5082599;28;20447;-70
2021/03/26 12:04:50;;;;;;;9.00;5.63;;;19.80;97.00;;;;;;5085398;28;20953;-71
2021/03/26 12:07:40;;;;;;;7.63;6.07;;;19.60;96.50;;;;;;5088144;28;20994;-70
2021/03/26 12:10:31;;;;;;;9.73;6.53;;;19.50;96.90;;;;;;5082456;28;20421;-70
2021/03/26 12:13:24;;;;;;;12.30;6.20;;;19.10;98.00;;;;;;5086605;28;20465;-71
2021/03/26 12:16:02;;;;;;;7.33;5.87;;;18.90;98.20;;;;;;5080194;28;20437;-70
2021/03/26 12:18:45;;;;;;;11.87;7.17;;;18.80;98.60;;;;;;5081727;28;20489;-71
2021/03/26 12:21:26;;;;;;;8.53;7.60;;;18.70;99.90;;;;;;5086479;28;20763;-68
2021/03/26 12:24:01;;;;;;;9.10;6.70;;;18.90;99.70;;;;;;5081852;28;20438;-71
2021/03/26 12:26:59;;;;;;;7.27;6.57;;;19.10;99.90;;;;;;5083404;28;20436;-71
2021/03/26 12:29:34;;;;;;;8.30;5.90;;;19.40;99.80;;;;;;5062857;28;20433;-71
2021/03/26 12:32:11;;;;;;;8.00;6.93;;;19.50;99.30;;;;;;5082725;28;20461;-67
2021/03/26 12:34:51;;;;;;;11.83;6.30;;;19.50;99.50;;;;;;5084287;28;20415;-72
2021/03/26 12:37:26;;;;;;;13.63;7.53;;;19.30;98.00;;;;;;5084289;28;20456;-69
2021/03/26 12:40:04;;;;;;;11.37;7.07;;;19.00;99.00;;;;;;5084632;28;20513;-69
2021/03/26 12:42:44;;;;;;;14.87;7.63;;;18.60;98.50;;;;;;5083215;28;20520;-71
2021/03/26 12:45:21;;;;;;;12.30;7.60;;;18.40;99.90;;;;;;5084058;28;21142;-69
2021/03/26 12:47:53;;;;;;;9.73;7.50;;;18.30;99.90;;;;;;5084670;28;20429;-70
2021/03/26 12:50:23;;;;;;;17.47;8.10;;;18.50;99.90;;;;;;5083055;28;20409;-69
2021/03/26 12:53:02;;;;;;;7.50;6.70;;;18.80;99.90;;;;;;5082913;28;20469;-70
2021/03/26 12:55:31;;;;;;;8.73;6.57;;;19.00;99.60;;;;;;5080618;28;20418;-70
2021/03/26 12:58:26;;;;;;;8.30;6.53;;;18.90;99.20;;;;;;5084587;28;20915;-70
2021/03/26 13:01:02;;;;;;;8.00;6.07;;;18.90;99.40;;;;;;5055058;28;20417;-70
2021/03/26 13:03:55;;;;;;;4.90;4.20;;;19.00;99.00;;;;;;5084253;28;20445;-70
2021/03/26 13:06:37;;;;;;;7.70;6.30;;;19.00;95.90;;;;;;5083123;28;20415;-69
2021/03/26 13:09:31;;;;;;;4.93;4.43;;;19.20;97.20;;;;;;5080794;28;20492;-69
2021/03/26 13:12:05;;;;;;;8.03;4.20;;;19.20;98.80;;;;;;5084901;28;20458;-69
2021/03/26 13:14:49;;;;;;;4.43;3.40;;;19.10;96.30;;;;;;5084449;28;20411;-70
2021/03/26 13:17:33;;;;;;;4.43;3.63;;;18.90;97.40;;;;;;5082018;28;20418;-70
2021/03/26 13:20:13;;;;;;;4.20;3.13;;;18.70;97.50;;;;;;5080563;28;20406;-70
2021/03/26 13:22:56;;;;;;;4.77;3.70;;;18.80;96.90;;;;;;5084301;28;20433;-70
2021/03/26 13:25:24;;;;;;;6.53;4.27;;;18.90;97.70;;;;;;5082751;28;20430;-70
2021/03/26 13:28:05;;;;;;;4.80;4.40;;;19.10;96.80;;;;;;5081501;28;20951;-71
2021/03/26 13:30:57;;;;;;;5.30;3.40;;;19.00;96.50;;;;;;5083413;28;20407;-70
2021/03/26 13:33:36;;;;;;;5.07;4.00;;;19.00;97.20;;;;;;5082662;28;20513;-70
2021/03/26 13:36:28;;;;;;;7.80;4.53;;;18.80;97.00;;;;;;5080088;28;20450;-70
2021/03/26 13:38:56;;;;;;;10.33;3.87;;;18.50;97.80;;;;;;5074485;28;20946;-70
2021/03/26 13:41:29;;;;;;;4.00;3.60;;;18.30;97.60;;;;;;5082397;28;20501;-70
2021/03/26 13:44:32;;;;;;;8.97;3.87;;;18.10;98.30;;;;;;5083310;28;20430;-70
2021/03/26 13:47:08;;;;;;;5.30;3.90;;;18.00;98.10;;;;;;5078120;28;20461;-70